Nantucket Memorial Airport
KACK : now visible

Airfield :











YOU CAN JOIN US ON...

 
LOGIN :

Register | Disclaimer

   EN    FR    IT 

 









Legend :    VFR   Marginal VFR   IFR   Intensive IFR   Very Intensive IFR
Visi :
Ceiling :
>= 8 km
>= 3000ft
5 to 8 km
1000 to 3000 ft
1500m to 5 km
500 to 1000 ft
800 to 1500m
200 to 500 ft
< 800m
< 200 ft
Symbols :   Thunderstorms  Fog  Heavy snow  Heavy precipitations  Wind > 20 kt






- Airport Elevation : 47 ft
- IATA code : ACK


KACK - Nantucket Memorial

CURRENT METAR :
  • 180453Z AUTO 04006KT 10SM CLR M01/M06 A3043 RMK AO2 SLP305 T10111056 400891011 FZRANO $

EXPIRED METARs :
  • 180353Z AUTO 05006KT 10SM CLR M01/M05 A3041 RMK AO2 SLP297 T10061050 FZRANO $
  • 180253Z AUTO 04005KT 10SM CLR 01/M03 A3041 RMK AO2 SLP297 T00061033 53021 FZRANO $

TAF KACK
Valid from the 18 at 06:00 until the 19 at 06:00 UTC


180522Z 1806/1906 07007KT P6SM SCT150
FM181000 09010G17KT P6SM BKN120
FM181700 12017G25KT P6SM OVC045
FM181800 12017G27KT P6SM -RA OVC020
FM182100 13020G28KT 4SM -RA OVC008 WS020/14050KT
FM182300 14019G28KT 1 1/2SM -RA OVC003 WS020/18045KT
FM190100 18013G26KT 2SM -SHRA BR OVC003 WS020/21045KT
FM190500 24011G25KT 1 1/2SM BR VCSH OVC003



MET'MAP, your aeronautical weather chart ! - Copyright ORBIFLY December 2007 - Disclaimer

ORBIFLY MET'MAP TEAM :

Programming & Development : Alexandra Zaïnal
Concept & original design : Baudouin d'Aumeries
Assistance for programming : Marc-Olivier Méhu
Technical & hardware support : Manuel Goepfert

Contact : metmap@orbifly.com




SOURCES & CREDITS :

   NOAA       Earth
Advisory